Time;durP1;ratioP1;P1;durP2;ratioP2;P2;SDS_P1;SDS_P2;PMS_P1;PMS_P2;Temp;Humidity;BMP_temperature;BMP_pressure;BME280_temperature;BME280_humidity;BME280_pressure;Samples;Min_cycle;Max_cycle;Signal;HPM_P1;HPM_P2
2022/04/18 00:01:19;;;;;;;;;;;;;;;7.77;100.00;101350.25;5046309;28;19924;-77
2022/04/18 00:03:48;;;;;;;;;;;;;;;7.75;100.00;101339.66;5051584;28;20398;-74
2022/04/18 00:06:14;;;;;;;;;;;;;;;7.71;100.00;101329.84;5052312;28;19917;-76
2022/04/18 00:08:39;;;;;;;;;;;;;;;7.64;100.00;101327.69;5053024;28;19917;-74
2022/04/18 00:11:04;;;;;;;;;;;;;;;7.59;100.00;101322.19;5051570;28;19971;-74
2022/04/18 00:13:30;;;;;;;;;;;;;;;7.54;100.00;101331.53;5051574;28;20015;-77
2022/04/18 00:15:55;;;;;;;;;;;;;;;7.50;100.00;101330.47;5050821;28;20407;-75
2022/04/18 00:18:20;;;;;;;;;;;;;;;7.45;100.00;101339.78;5050916;28;20292;-74
2022/04/18 00:20:47;;;;;;;;;;;;;;;7.42;100.00;101339.59;5051492;28;19931;-73
2022/04/18 00:23:12;;;;;;;;;;;;;;;7.39;100.00;101331.56;5051080;28;19924;-74
2022/04/18 00:25:38;;;;;;;;;;;;;;;7.39;100.00;101335.91;5052059;28;19917;-74
2022/04/18 00:28:03;;;;;;;;;;;;;;;7.42;100.00;101326.50;5051135;28;20525;-74
2022/04/18 00:30:28;;;;;;;;;;;;;;;7.46;100.00;101330.22;5068041;28;19925;-74
2022/04/18 00:32:54;;;;;;;;;;;;;;;7.45;100.00;101318.81;5051499;28;19940;-74
2022/04/18 00:35:19;;;;;;;;;;;;;;;7.45;100.00;101324.06;5053012;28;20065;-74
2022/04/18 00:37:44;;;;;;;;;;;;;;;7.49;100.00;101323.41;5051041;28;19971;-74
2022/04/18 00:40:11;;;;;;;;;;;;;;;7.53;100.00;101322.75;5039329;28;19951;-74
2022/04/18 00:42:36;;;;;;;;;;;;;;;7.56;100.00;101327.28;5045825;28;19932;-74
2022/04/18 00:45:03;;;;;;;;;;;;;;;7.50;100.00;101327.84;5052276;28;19921;-74
2022/04/18 00:47:28;;;;;;;;;;;;;;;7.51;100.00;101327.00;5070600;28;19925;-74
2022/04/18 00:49:53;;;;;;;;;;;;;;;7.53;100.00;101333.22;5054809;28;19928;-75
2022/04/18 00:52:19;;;;;;;;;;;;;;;7.56;100.00;101337.75;5046879;28;19917;-74
2022/04/18 00:54:47;;;;;;;;;;;;;;;7.49;100.00;101344.38;5052728;28;19921;-74
2022/04/18 00:57:12;;;;;;;;;;;;;;;7.51;100.00;101341.84;5053734;28;19922;-75
2022/04/18 00:59:38;;;;;;;;;;;;;;;7.59;100.00;101344.91;5064750;28;19927;-73
2022/04/18 01:02:04;;;;;;;;;;;;;;;7.69;100.00;101348.13;5055066;28;19923;-74
2022/04/18 01:04:30;;;;;;;;;;;;;;;7.66;100.00;101357.50;5064893;28;19923;-76
2022/04/18 01:06:55;;;;;;;;;;;;;;;7.64;100.00;101360.03;5050723;28;20017;-75
2022/04/18 01:09:20;;;;;;;;;;;;;;;7.59;100.00;101339.66;5056849;28;19917;-75
2022/04/18 01:11:46;;;;;;;;;;;;;;;7.50;100.00;101330.47;5050393;28;19987;-74
2022/04/18 01:14:11;;;;;;;;;;;;;;;7.43;100.00;101316.94;5050522;28;20347;-78
2022/04/18 01:16:36;;;;;;;;;;;;;;;7.37;100.00;101310.50;5063593;28;20015;-78
2022/04/18 01:19:02;;;;;;;;;;;;;;;7.29;100.00;101310.91;5053060;28;19920;-74
2022/04/18 01:21:27;;;;;;;;;;;;;;;7.17;100.00;101301.53;5066701;28;19931;-74
2022/04/18 01:23:57;;;;;;;;;;;;;;;7.11;100.00;101303.78;5064917;28;19920;-74
2022/04/18 01:29:06;;;;;;;;;;;;;;;7.13;100.00;101280.31;5038284;28;19928;-73
2022/04/18 01:31:35;;;;;;;;;;;;;;;7.10;100.00;101273.22;5061928;28;19921;-74
2022/04/18 01:34:03;;;;;;;;;;;;;;;7.08;100.00;101263.44;5054450;28;20408;-74
2022/04/18 01:36:29;;;;;;;;;;;;;;;7.07;100.00;101264.25;5046971;28;19967;-74
2022/04/18 01:38:54;;;;;;;;;;;;;;;7.01;100.00;101254.34;5048381;28;20010;-75
2022/04/18 01:41:20;;;;;;;;;;;;;;;6.98;100.00;101244.59;5049903;28;19963;-72
2022/04/18 01:43:47;;;;;;;;;;;;;;;6.91;100.00;101237.19;5050143;28;19920;-74
2022/04/18 01:46:14;;;;;;;;;;;;;;;6.91;100.00;101238.91;5053521;28;19928;-74
2022/04/18 01:48:39;;;;;;;;;;;;;;;6.89;100.00;101232.72;5083697;28;19917;-75
2022/04/18 01:51:04;;;;;;;;;;;;;;;6.83;100.00;101234.13;5050131;28;19924;-74
2022/04/18 01:53:31;;;;;;;;;;;;;;;6.81;100.00;101229.66;5050189;28;20016;-73
2022/04/18 01:55:56;;;;;;;;;;;;;;;6.81;100.00;101225.31;5050128;28;20015;-75
2022/04/18 01:58:21;;;;;;;;;;;;;;;6.84;100.00;101237.69;5049830;28;20011;-78
2022/04/18 02:00:47;;;;;;;;;;;;;;;6.83;100.00;101238.47;5049736;28;20257;-75
2022/04/18 02:03:12;;;;;;;;;;;;;;;6.93;100.00;101263.47;5051352;28;20598;-75
2022/04/18 02:05:37;;;;;;;;;;;;;;;6.90;100.00;101265.91;5050884;28;19925;-75
2022/04/18 02:08:03;;;;;;;;;;;;;;;6.98;100.00;101270.78;5051286;28;20380;-75
2022/04/18 02:10:28;;;;;;;;;;;;;;;6.98;100.00;101272.50;5070839;28;20024;-76
2022/04/18 02:12:54;;;;;;;;;;;;;;;6.97;100.00;101286.41;5050996;28;19928;-74
2022/04/18 02:15:21;;;;;;;;;;;;;;;6.97;100.00;101294.25;5049710;28;19921;-75
2022/04/18 02:17:46;;;;;;;;;;;;;;;7.00;100.00;101299.66;5055508;28;19926;-75
2022/04/18 02:20:11;;;;;;;;;;;;;;;7.02;100.00;101305.88;5056549;28;19917;-74
2022/04/18 02:22:37;;;;;;;;;;;;;;;7.02;100.00;101305.88;5044852;28;19917;-76
2022/04/18 02:25:02;;;;;;;;;;;;;;;7.07;100.00;101306.16;5048500;28;19924;-74
2022/04/18 02:27:27;;;;;;;;;;;;;;;7.03;100.00;101309.44;5049328;28;19932;-76
2022/04/18 02:29:53;;;;;;;;;;;;;;;6.99;100.00;101322.34;5046334;28;20344;-76
2022/04/18 02:35:06;;;;;;;;;;;;;;;6.92;100.00;101314.03;5046672;28;19928;-74
2022/04/18 02:37:31;;;;;;;;;;;;;;;6.90;100.00;101302.56;5038386;28;19921;-75
2022/04/18 02:39:59;;;;;;;;;;;;;;;6.88;100.00;101302.47;5048268;28;19917;-73
2022/04/18 02:42:24;;;;;;;;;;;;;;;6.86;100.00;101303.22;5043206;28;20361;-73
2022/04/18 02:44:49;;;;;;;;;;;;;;;6.88;100.00;101298.97;5057668;28;19927;-74
2022/04/18 02:47:14;;;;;;;;;;;;;;;6.83;100.00;101302.19;5057036;28;19920;-73
2022/04/18 02:49:40;;;;;;;;;;;;;;;6.75;100.00;101310.44;5069551;28;19925;-75
2022/04/18 02:52:05;;;;;;;;;;;;;;;6.70;100.00;101298.81;5050991;28;20434;-73
2022/04/18 02:54:30;;;;;;;;;;;;;;;6.65;100.00;101307.28;5046266;28;20011;-75
2022/04/18 02:56:56;;;;;;;;;;;;;;;6.57;100.00;101308.56;5032329;28;20348;-75
2022/04/18 02:59:21;;;;;;;;;;;;;;;6.63;100.00;101308.00;5052421;28;19928;-77
2022/04/18 03:01:46;;;;;;;;;;;;;;;6.57;100.00;101313.78;5052997;28;20604;-74
2022/04/18 03:04:12;;;;;;;;;;;;;;;6.51;100.00;101312.50;5054118;28;19921;-75
2022/04/18 03:06:37;;;;;;;;;;;;;;;6.50;100.00;101300.25;5056223;28;20438;-73
2022/04/18 03:09:02;;;;;;;;;;;;;;;6.46;100.00;101301.75;5049415;28;19924;-75
2022/04/18 03:11:27;;;;;;;;;;;;;;;6.38;100.00;101292.56;5074386;28;19925;-73
2022/04/18 03:13:53;;;;;;;;;;;;;;;6.37;100.00;101288.13;5052831;28;20391;-74
2022/04/18 03:16:18;;;;;;;;;;;;;;;6.32;100.00;101280.00;5046628;28;19925;-74
2022/04/18 03:18:44;;;;;;;;;;;;;;;6.28;100.00;101286.78;5051228;28;19967;-74
2022/04/18 03:21:10;;;;;;;;;;;;;;;6.22;100.00;101275.94;5052763;28;19920;-74
2022/04/18 03:23:57;;;;;;;;;;;;;;;6.14;100.00;101276.28;5130028;27;20437;-74
2022/04/18 03:26:22;;;;;;;;;;;;;;;6.11;100.00;101266.56;5114673;28;20601;-73
2022/04/18 03:28:47;;;;;;;;;;;;;;;6.08;100.00;101268.97;5109901;28;19927;-76
2022/04/18 03:31:13;;;;;;;;;;;;;;;6.06;100.00;101266.28;5097449;28;19942;-74
2022/04/18 03:33:38;;;;;;;;;;;;;;;5.98;100.00;101263.97;5091268;28;19955;-74
2022/04/18 03:41:31;;;;;;;;;;;;;;;5.94;100.00;101247.19;5128227;27;19964;-76
2022/04/18 03:43:57;;;;;;;;;;;;;;;5.90;100.00;101240.88;5123560;28;20019;-78
2022/04/18 03:46:23;;;;;;;;;;;;;;;5.90;100.00;101234.72;5102289;28;19922;-76
2022/04/18 03:48:48;;;;;;;;;;;;;;;5.96;100.00;101232.50;5110872;28;19923;-78
2022/04/18 03:51:14;;;;;;;;;;;;;;;6.04;100.00;101239.09;5099941;28;19920;-77
2022/04/18 03:53:39;;;;;;;;;;;;;;;6.09;100.00;101245.53;5115751;27;20292;-78
2022/04/18 03:56:04;;;;;;;;;;;;;;;6.20;100.00;101248.81;5099847;28;20195;-77
2022/04/18 03:58:30;;;;;;;;;;;;;;;6.20;100.00;101237.41;5096655;28;19920;-75
2022/04/18 04:00:55;;;;;;;;;;;;;;;6.23;100.00;101222.84;5108908;28;19966;-77
2022/04/18 04:03:21;;;;;;;;;;;;;;;6.20;100.00;101206.03;5106089;28;19920;-77
2022/04/18 04:05:46;;;;;;;;;;;;;;;6.20;100.00;101204.34;5107400;27;19923;-75
2022/04/18 04:08:12;;;;;;;;;;;;;;;6.17;100.00;101203.22;5106744;28;20299;-76
2022/04/18 04:10:37;;;;;;;;;;;;;;;6.18;100.00;101212.91;5110969;28;19950;-75
2022/04/18 04:13:03;;;;;;;;;;;;;;;6.20;100.00;101217.41;5107731;28;20276;-74
2022/04/18 04:15:29;;;;;;;;;;;;;;;6.25;100.00;101221.19;5093222;28;20011;-76
2022/04/18 04:17:54;;;;;;;;;;;;;;;6.33;100.00;101249.53;5110689;28;19982;-78
2022/04/18 04:20:21;;;;;;;;;;;;;;;6.24;100.00;101249.88;5111380;28;19912;-77
2022/04/18 04:22:48;;;;;;;;;;;;;;;6.21;100.00;101260.16;5096454;27;19924;-74
2022/04/18 04:25:14;;;;;;;;;;;;;;;6.08;100.00;101262.03;5112499;28;20348;-76
2022/04/18 04:27:39;;;;;;;;;;;;;;;6.10;100.00;101273.47;5111025;28;20010;-75
2022/04/18 04:30:05;;;;;;;;;;;;;;;6.10;100.00;101272.56;5096969;28;19924;-76
2022/04/18 04:32:30;;;;;;;;;;;;;;;6.13;100.00;101282.31;5094038;28;19943;-78
2022/04/18 04:34:57;;;;;;;;;;;;;;;6.14;100.00;101292.88;5089250;28;19920;-77
2022/04/18 04:37:23;;;;;;;;;;;;;;;6.06;100.00;101292.41;5089804;27;19926;-78
2022/04/18 04:39:48;;;;;;;;;;;;;;;6.05;100.00;101285.38;5093750;28;19920;-75
2022/04/18 04:42:14;;;;;;;;;;;;;;;5.95;100.00;101277.75;5078918;28;20296;-80
2022/04/18 04:44:40;;;;;;;;;;;;;;;5.82;100.00;101263.00;5101812;27;20010;-75
2022/04/18 04:47:05;;;;;;;;;;;;;;;5.69;100.00;101255.25;5099851;28;20441;-74
2022/04/18 04:49:30;;;;;;;;;;;;;;;5.61;100.00;101223.41;5094539;28;19916;-74
2022/04/18 04:51:56;;;;;;;;;;;;;;;5.55;100.00;101205.63;5097802;28;19926;-74
2022/04/18 04:54:22;;;;;;;;;;;;;;;5.60;100.00;101203.31;5090052;28;19927;-74
2022/04/18 04:56:47;;;;;;;;;;;;;;;5.65;100.00;101194.03;5093036;28;19916;-74
2022/04/18 04:59:13;;;;;;;;;;;;;;;5.80;100.00;101194.06;5096420;28;19943;-75
2022/04/18 05:01:38;;;;;;;;;;;;;;;6.63;100.00;101174.53;5096049;28;19916;-73
2022/04/18 05:04:04;;;;;;;;;;;;;;;8.02;100.00;101169.81;5095246;28;19970;-74
2022/04/18 05:06:29;;;;;;;;;;;;;;;9.39;100.00;101209.75;5096129;28;19916;-74
2022/04/18 05:08:55;;;;;;;;;;;;;;;9.69;100.00;101293.50;5095430;28;20257;-74
2022/04/18 05:11:20;;;;;;;;;;;;;;;10.64;100.00;101344.28;5085794;28;19927;-74
2022/04/18 05:13:46;;;;;;;;;;;;;;;11.90;100.00;101350.28;5088471;28;20532;-74
2022/04/18 05:16:11;;;;;;;;;;;;;;;11.48;100.00;101372.38;5090517;28;19920;-74
2022/04/18 05:18:37;;;;;;;;;;;;;;;11.82;100.00;101366.75;5095325;28;19920;-75
2022/04/18 05:21:02;;;;;;;;;;;;;;;12.73;100.00;101424.72;5093860;28;20320;-74
2022/04/18 05:23:27;;;;;;;;;;;;;;;13.70;100.00;101570.97;5090218;28;20435;-74
2022/04/18 05:25:52;;;;;;;;;;;;;;;14.35;100.00;101748.88;5090037;28;20344;-75
2022/04/18 05:28:18;;;;;;;;;;;;;;;15.10;100.00;101788.50;5100668;27;19930;-74
2022/04/18 05:30:43;;;;;;;;;;;;;;;15.39;100.00;101800.94;5106199;28;19920;-72
2022/04/18 05:33:09;;;;;;;;;;;;;;;15.03;100.00;101806.88;5082826;28;19943;-72
2022/04/18 05:35:34;;;;;;;;;;;;;;;15.83;100.00;101804.94;5088278;28;20006;-74
2022/04/18 05:37:59;;;;;;;;;;;;;;;15.77;100.00;101808.34;5094237;28;19963;-74
2022/04/18 05:40:24;;;;;;;;;;;;;;;16.45;100.00;101819.16;5088063;28;20010;-72
2022/04/18 05:42:51;;;;;;;;;;;;;;;17.22;100.00;101828.22;5111459;28;19977;-72
2022/04/18 05:45:16;;;;;;;;;;;;;;;17.40;100.00;101841.97;5094029;28;19951;-73
2022/04/18 05:47:42;;;;;;;;;;;;;;;18.49;100.00;101850.53;5093868;28;19967;-73
2022/04/18 05:50:07;;;;;;;;;;;;;;;18.25;100.00;101861.59;5061409;28;19932;-73
2022/04/18 05:52:33;;;;;;;;;;;;;;;19.12;100.00;101864.16;5074859;28;19920;-75
2022/04/18 05:54:59;;;;;;;;;;;;;;;18.83;100.00;101867.16;5100530;28;19951;-77
2022/04/18 05:57:25;;;;;;;;;;;;;;;18.02;100.00;101872.69;5088444;28;19916;-74
2022/04/18 05:59:50;;;;;;;;;;;;;;;18.50;100.00;101865.66;5093637;28;19920;-73
2022/04/18 06:02:15;;;;;;;;;;;;;;;17.33;100.00;101857.75;5076648;28;19942;-75
2022/04/18 06:04:41;;;;;;;;;;;;;;;17.63;100.00;101849.56;5090423;28;19951;-74
2022/04/18 06:07:06;;;;;;;;;;;;;;;18.35;100.00;101868.00;5082190;28;19980;-74
2022/04/18 06:09:32;;;;;;;;;;;;;;;18.05;100.00;101864.78;5095207;28;19955;-75
2022/04/18 06:11:57;;;;;;;;;;;;;;;17.88;100.00;101869.72;5100308;28;19916;-72
2022/04/18 06:14:27;;;;;;;;;;;;;;;16.77;100.00;101863.41;5074985;28;19917;-75
2022/04/18 06:16:52;;;;;;;;;;;;;;;16.74;100.00;101858.91;5088984;28;19916;-75
2022/04/18 06:19:17;;;;;;;;;;;;;;;16.49;100.00;101860.88;5073757;28;19923;-74
2022/04/18 06:21:43;;;;;;;;;;;;;;;16.82;100.00;101864.41;5080955;28;19916;-75
2022/04/18 06:24:08;;;;;;;;;;;;;;;16.32;100.00;101862.19;5082719;28;20014;-74
2022/04/18 06:26:33;;;;;;;;;;;;;;;15.64;100.00;101854.81;5074237;28;19916;-73
2022/04/18 06:28:59;;;;;;;;;;;;;;;15.00;100.00;101848.31;5073936;28;19916;-74
2022/04/18 06:31:24;;;;;;;;;;;;;;;15.28;100.00;101846.59;5074804;28;19922;-76
2022/04/18 06:33:51;;;;;;;;;;;;;;;15.60;100.00;101844.97;5091500;28;20025;-74
2022/04/18 06:36:17;;;;;;;;;;;;;;;16.32;100.00;101840.91;5093787;28;19926;-74
2022/04/18 06:38:42;;;;;;;;;;;;;;;15.86;100.00;101851.09;5093524;28;19924;-73
2022/04/18 06:41:09;;;;;;;;;;;;;;;15.31;100.00;101852.88;5094056;28;20420;-73
2022/04/18 06:43:35;;;;;;;;;;;;;;;16.02;100.00;101847.16;5094136;28;19915;-74
2022/04/18 06:46:00;;;;;;;;;;;;;;;16.82;100.00;101860.00;5112065;28;19922;-76
2022/04/18 06:48:25;;;;;;;;;;;;;;;17.18;100.00;101855.63;5094385;28;19919;-77
2022/04/18 06:50:50;;;;;;;;;;;;;;;17.49;100.00;101859.91;5076900;28;19924;-77
2022/04/18 06:53:16;;;;;;;;;;;;;;;16.28;100.00;101868.25;5093834;28;20367;-74
2022/04/18 06:58:25;;;;;;;;;;;;;;;15.88;100.00;101867.06;5092221;28;20002;-73
2022/04/18 07:00:50;;;;;;;;;;;;;;;15.83;100.00;101869.59;5103475;28;19937;-77
2022/04/18 07:03:19;;;;;;;;;;;;;;;15.77;100.00;101870.31;5111464;28;19916;-74
2022/04/18 07:05:44;;;;;;;;;;;;;;;16.05;100.00;101870.22;5111932;28;19947;-73
2022/04/18 07:08:09;;;;;;;;;;;;;;;17.57;100.00;101874.31;5075967;28;20301;-73
2022/04/18 07:10:35;;;;;;;;;;;;;;;16.63;100.00;101881.66;5111617;28;19923;-74
2022/04/18 07:13:00;;;;;;;;;;;;;;;17.74;100.00;101873.78;5092923;28;19916;-75
2022/04/18 07:15:25;;;;;;;;;;;;;;;17.21;100.00;101872.59;5092985;28;20045;-74
2022/04/18 07:17:51;;;;;;;;;;;;;;;18.23;100.00;101877.56;5072729;28;20387;-72
2022/04/18 07:20:18;;;;;;;;;;;;;;;17.36;100.00;101872.03;5087882;28;19924;-72
2022/04/18 07:22:44;;;;;;;;;;;;;;;18.12;100.00;101873.78;5110666;28;20407;-72
2022/04/18 07:25:09;;;;;;;;;;;;;;;17.89;100.00;101876.84;5106744;28;19951;-73
2022/04/18 07:27:35;;;;;;;;;;;;;;;18.02;100.00;101866.44;5131821;28;19911;-74
2022/04/18 07:30:00;;;;;;;;;;;;;;;18.64;100.00;101877.50;5112433;28;19916;-74
2022/04/18 07:32:26;;;;;;;;;;;;;;;18.40;100.00;101877.03;5113513;28;20525;-75
2022/04/18 07:34:53;;;;;;;;;;;;;;;18.89;100.00;101877.97;5112500;28;19915;-74
2022/04/18 07:37:18;;;;;;;;;;;;;;;18.59;100.00;101871.16;5131871;28;19991;-74
2022/04/18 07:39:43;;;;;;;;;;;;;;;19.10;100.00;101881.91;5113562;28;19955;-73
2022/04/18 07:42:09;;;;;;;;;;;;;;;20.08;96.86;101890.56;5112850;28;19922;-73
2022/04/18 07:44:34;;;;;;;;;;;;;;;19.79;100.00;101887.47;5131325;28;19915;-73
2022/04/18 07:46:59;;;;;;;;;;;;;;;19.45;98.59;101882.50;5131674;28;20366;-74
2022/04/18 07:49:25;;;;;;;;;;;;;;;19.52;99.00;101886.16;5113279;28;19916;-73
2022/04/18 07:51:50;;;;;;;;;;;;;;;19.36;97.07;101888.59;5131412;28;19927;-73
2022/04/18 07:54:17;;;;;;;;;;;;;;;19.49;93.45;101884.31;5113294;28;20366;-74
2022/04/18 07:56:43;;;;;;;;;;;;;;;19.03;96.53;101886.22;5131428;28;19922;-74
2022/04/18 07:59:09;;;;;;;;;;;;;;;19.20;97.85;101883.84;5113125;28;20392;-75
2022/04/18 08:01:34;;;;;;;;;;;;;;;19.64;97.75;101885.44;5113336;28;19972;-73
2022/04/18 08:04:01;;;;;;;;;;;;;;;18.42;82.55;101893.94;5130619;28;20283;-74
2022/04/18 08:06:27;;;;;;;;;;;;;;;18.97;91.54;101879.03;5113418;28;20575;-73
2022/04/18 08:08:52;;;;;;;;;;;;;;;18.30;75.61;101887.50;5132248;27;19916;-75
2022/04/18 08:11:17;;;;;;;;;;;;;;;18.96;74.45;101895.91;5134892;27;20018;-74
2022/04/18 08:13:43;;;;;;;;;;;;;;;19.19;72.71;101890.97;5116860;27;19924;-73
2022/04/18 08:16:08;;;;;;;;;;;;;;;19.28;72.11;101895.56;5116419;27;20391;-73
2022/04/18 08:18:39;;;;;;;;;;;;;;;19.66;73.36;101895.28;5135031;27;19917;-73
2022/04/18 08:21:04;;;;;;;;;;;;;;;19.40;80.07;101899.31;5116502;27;19916;-77
2022/04/18 08:23:30;;;;;;;;;;;;;;;19.71;72.47;101890.88;5116857;27;20465;-75
2022/04/18 08:25:56;;;;;;;;;;;;;;;19.81;71.64;101889.31;5134475;27;19965;-73
2022/04/18 08:28:21;;;;;;;;;;;;;;;19.58;56.96;101898.69;5100169;27;19923;-74
2022/04/18 08:30:46;;;;;;;;;;;;;;;20.00;56.58;101900.25;5116586;27;19911;-75
2022/04/18 08:33:11;;;;;;;;;;;;;;;20.47;56.55;101899.94;5116261;27;19970;-73
2022/04/18 08:35:37;;;;;;;;;;;;;;;20.96;54.79;101895.16;5116288;27;19922;-74
2022/04/18 08:38:02;;;;;;;;;;;;;;;21.07;53.51;101895.25;5134609;27;20037;-73
2022/04/18 08:40:27;;;;;;;;;;;;;;;21.01;49.28;101892.53;5116501;27;19915;-74
2022/04/18 08:42:55;;;;;;;;;;;;;;;20.34;51.01;101898.91;5116276;27;19916;-76
2022/04/18 08:45:23;;;;;;;;;;;;;;;19.61;49.83;101885.38;5116259;27;19941;-74
2022/04/18 08:53:23;;;;;;;;;;;;;;;19.07;55.27;101887.19;5134162;27;20561;-73
2022/04/18 08:55:49;;;;;;;;;;;;;;;19.17;56.39;101889.13;5113758;27;19915;-74
2022/04/18 08:58:15;;;;;;;;;;;;;;;19.68;54.54;101889.94;5116407;27;20304;-75
2022/04/18 09:00:41;;;;;;;;;;;;;;;20.14;58.95;101889.75;5099176;27;19931;-74
2022/04/18 09:03:06;;;;;;;;;;;;;;;20.57;52.61;101895.59;5115810;27;19916;-75
2022/04/18 09:05:36;;;;;;;;;;;;;;;21.20;53.76;101893.56;5116361;27;19923;-75
2022/04/18 09:08:02;;;;;;;;;;;;;;;20.73;53.07;101888.69;5115442;27;20011;-77
2022/04/18 09:10:28;;;;;;;;;;;;;;;20.61;61.16;101889.41;5116312;27;20335;-73
2022/04/18 09:12:54;;;;;;;;;;;;;;;20.88;57.50;101879.88;5115795;27;20030;-74
2022/04/18 09:15:30;;;;;;;;;;;;;;;20.39;54.50;101885.59;5115550;27;19916;-74
2022/04/18 09:18:05;;;;;;;;;;;;;;;20.31;54.04;101882.81;5115284;27;19922;-73
2022/04/18 09:20:39;;;;;;;;;;;;;;;20.51;55.30;101884.81;5115206;27;19994;-73
2022/04/18 09:23:04;;;;;;;;;;;;;;;19.85;55.75;101879.53;5115014;27;19927;-74
2022/04/18 09:25:36;;;;;;;;;;;;;;;20.23;55.81;101880.06;5115463;27;20271;-74
2022/04/18 09:28:01;;;;;;;;;;;;;;;19.92;55.29;101878.75;5114946;27;19952;-75
2022/04/18 09:30:31;;;;;;;;;;;;;;;19.79;58.74;101871.44;5098769;27;19920;-74
2022/04/18 09:33:06;;;;;;;;;;;;;;;19.67;57.81;101870.34;5114969;27;20367;-73
2022/04/18 09:35:32;;;;;;;;;;;;;;;19.29;55.26;101865.31;5115157;27;20018;-73
2022/04/18 09:38:06;;;;;;;;;;;;;;;19.53;60.64;101859.47;5129493;27;20007;-71
2022/04/18 09:40:31;;;;;;;;;;;;;;;19.76;58.90;101869.56;5095171;28;19915;-74
2022/04/18 09:42:57;;;;;;;;;;;;;;;19.87;60.15;101862.66;5108549;28;20455;-76
2022/04/18 09:45:22;;;;;;;;;;;;;;;19.69;58.21;101863.25;5095202;28;20006;-73
2022/04/18 09:47:55;;;;;;;;;;;;;;;19.89;59.21;101863.56;5094925;28;20283;-73
2022/04/18 09:53:05;;;;;;;;;;;;;;;19.42;55.35;101862.84;5112725;28;19966;-74
2022/04/18 09:55:30;;;;;;;;;;;;;;;19.34;58.79;101857.38;5095527;28;19916;-77
2022/04/18 09:58:02;;;;;;;;;;;;;;;18.76;59.73;101863.47;5096090;28;19920;-78
2022/04/18 10:00:28;;;;;;;;;;;;;;;18.83;61.13;101853.81;5113513;28;20019;-79
2022/04/18 10:02:53;;;;;;;;;;;;;;;18.78;61.90;101856.44;5095680;28;19951;-79
2022/04/18 10:05:19;;;;;;;;;;;;;;;18.66;64.69;101854.41;5095882;28;19916;-76
2022/04/18 10:07:45;;;;;;;;;;;;;;;18.73;60.52;101852.75;5096042;28;19916;-75
2022/04/18 10:10:12;;;;;;;;;;;;;;;19.09;61.93;101850.75;5095662;28;19939;-78
2022/04/18 10:12:38;;;;;;;;;;;;;;;19.05;60.58;101851.56;5095926;28;19923;-77
2022/04/18 10:15:04;;;;;;;;;;;;;;;19.11;61.71;101846.31;5096121;28;19915;-77
2022/04/18 10:17:30;;;;;;;;;;;;;;;18.73;60.60;101850.09;5079045;28;19942;-76
2022/04/18 10:20:04;;;;;;;;;;;;;;;19.15;67.82;101848.19;5095892;28;20356;-75
2022/04/18 10:22:30;;;;;;;;;;;;;;;18.85;62.53;101838.78;5102898;28;20281;-74
2022/04/18 10:24:57;;;;;;;;;;;;;;;18.75;63.33;101840.38;5076993;28;20019;-77
2022/04/18 10:27:31;;;;;;;;;;;;;;;18.55;67.33;101841.75;5077364;28;19927;-77
2022/04/18 10:30:00;;;;;;;;;;;;;;;18.40;65.46;101843.25;5094912;28;19923;-77
2022/04/18 10:32:26;;;;;;;;;;;;;;;18.56;64.47;101841.78;5095443;28;19920;-77
2022/04/18 10:35:03;;;;;;;;;;;;;;;19.00;66.91;101840.78;5095959;28;19916;-75
2022/04/18 10:37:29;;;;;;;;;;;;;;;19.14;59.22;101847.28;5113969;28;19916;-78
2022/04/18 10:39:58;;;;;;;;;;;;;;;18.98;57.56;101838.09;5091421;28;19962;-78
2022/04/18 10:42:27;;;;;;;;;;;;;;;19.33;56.18;101836.91;5075008;28;19992;-76
2022/04/18 10:45:00;;;;;;;;;;;;;;;18.61;59.38;101837.44;5076406;28;20330;-76
2022/04/18 10:47:26;;;;;;;;;;;;;;;18.97;64.21;101832.75;5088038;28;19920;-75
2022/04/18 10:50:16;;;;;;;;;;;;;;;19.05;59.89;101832.88;5071187;28;20011;-76
2022/04/18 10:52:44;;;;;;;;;;;;;;;18.97;56.57;101828.31;5062595;28;19931;-77
2022/04/18 10:55:18;;;;;;;;;;;;;;;19.38;56.31;101830.75;5086286;28;19915;-77
2022/04/18 10:57:43;;;;;;;;;;;;;;;18.58;54.50;101821.38;5094557;28;20379;-77
2022/04/18 11:00:09;;;;;;;;;;;;;;;19.08;60.24;101817.81;5093586;28;19916;-78
2022/04/18 11:02:39;;;;;;;;;;;;;;;19.56;57.05;101823.91;5082369;28;19963;-78
2022/04/18 11:05:05;;;;;;;;;;;;;;;19.78;56.84;101817.09;5093479;28;19942;-77
2022/04/18 11:07:38;;;;;;;;;;;;;;;19.51;64.41;101817.56;5077287;28;20007;-78
2022/04/18 11:10:18;;;;;;;;;;;;;;;19.80;61.76;101817.13;5093563;28;19939;-77
2022/04/18 11:12:43;;;;;;;;;;;;;;;19.43;65.33;101824.59;5095207;28;19916;-78
2022/04/18 11:15:08;;;;;;;;;;;;;;;18.93;64.68;101814.91;5112303;28;20492;-78
2022/04/18 11:17:37;;;;;;;;;;;;;;;18.77;64.81;101811.03;5094546;28;19918;-77
2022/04/18 11:20:24;;;;;;;;;;;;;;;19.18;62.47;101818.84;5074271;28;19916;-77
2022/04/18 11:23:09;;;;;;;;;;;;;;;19.32;60.80;101824.41;5077409;28;19919;-77
2022/04/18 11:26:08;;;;;;;;;;;;;;;19.22;63.03;101822.47;5080405;28;19923;-77
2022/04/18 11:28:39;;;;;;;;;;;;;;;19.17;62.82;101812.63;5048199;28;19916;-77
2022/04/18 11:31:08;;;;;;;;;;;;;;;19.25;64.81;101811.84;5112210;28;19916;-76
2022/04/18 11:33:44;;;;;;;;;;;;;;;19.49;59.91;101814.00;5093079;28;19916;-77
2022/04/18 11:36:10;;;;;;;;;;;;;;;19.52;61.21;101808.69;5094097;28;20019;-76
2022/04/18 11:38:36;;;;;;;;;;;;;;;19.76;59.89;101807.22;5094238;28;19966;-78
2022/04/18 11:41:09;;;;;;;;;;;;;;;19.60;61.53;101808.81;5094016;28;19916;-76
2022/04/18 11:43:35;;;;;;;;;;;;;;;19.32;59.74;101811.06;5094702;28;19923;-77
2022/04/18 11:46:06;;;;;;;;;;;;;;;19.34;58.29;101801.28;5098069;28;20008;-76
2022/04/18 11:48:31;;;;;;;;;;;;;;;19.62;60.09;101810.59;5097832;28;19916;-76
2022/04/18 11:50:56;;;;;;;;;;;;;;;19.46;63.37;101804.16;5098086;28;19916;-75
2022/04/18 11:53:30;;;;;;;;;;;;;;;19.37;62.66;101798.66;5116754;28;20019;-76
2022/04/18 11:55:56;;;;;;;;;;;;;;;19.28;60.95;101804.78;5098264;28;20524;-75
2022/04/18 11:58:22;;;;;;;;;;;;;;;19.53;59.39;101805.16;5099334;28;19927;-77
2022/04/18 12:09:02;;;;;;;;;;;;;;;19.11;61.02;101801.84;5116820;28;20383;-78
2022/04/18 12:11:34;;;;;;;;;;;;;;;18.94;62.39;101782.91;5098874;28;19919;-77
2022/04/18 12:14:00;;;;;;;;;;;;;;;18.95;60.97;101792.69;5098400;28;20283;-78
2022/04/18 12:16:26;;;;;;;;;;;;;;;19.19;59.26;101785.97;5116791;28;20065;-77
2022/04/18 12:18:55;;;;;;;;;;;;;;;19.41;58.08;101786.28;5116812;28;20570;-77
2022/04/18 12:21:20;;;;;;;;;;;;;;;19.33;57.28;101787.06;5098241;28;19988;-77
2022/04/18 12:23:52;;;;;;;;;;;;;;;19.17;57.37;101783.25;5097866;28;19928;-78
2022/04/18 12:26:18;;;;;;;;;;;;;;;19.24;55.21;101786.91;5098932;28;19942;-77
2022/04/18 12:28:43;;;;;;;;;;;;;;;19.44;55.02;101784.53;5116391;28;20393;-77
2022/04/18 12:31:12;;;;;;;;;;;;;;;19.61;57.32;101781.19;5097747;28;19916;-78
2022/04/18 12:33:50;;;;;;;;;;;;;;;19.18;57.12;101782.38;5098416;28;20010;-78
2022/04/18 12:36:26;;;;;;;;;;;;;;;18.96;57.39;101767.78;5098246;28;20390;-77
2022/04/18 12:38:51;;;;;;;;;;;;;;;19.48;53.89;101780.13;5097949;28;20010;-78
2022/04/18 12:41:43;;;;;;;;;;;;;;;19.53;53.02;101774.00;5116558;28;19946;-78
2022/04/18 12:44:09;;;;;;;;;;;;;;;19.50;56.88;101768.59;5092623;28;20299;-77
2022/04/18 12:46:35;;;;;;;;;;;;;;;19.50;53.63;101775.72;5097062;28;20367;-79
2022/04/18 12:49:05;;;;;;;;;;;;;;;18.91;55.32;101764.16;5097696;28;19962;-77
2022/04/18 12:51:35;;;;;;;;;;;;;;;19.28;60.35;101764.75;5097368;28;19976;-78
2022/04/18 12:54:01;;;;;;;;;;;;;;;19.45;55.35;101764.97;5098022;28;19919;-79
2022/04/18 12:56:27;;;;;;;;;;;;;;;19.58;55.52;101766.03;5097969;28;20344;-78
2022/04/18 12:58:55;;;;;;;;;;;;;;;19.54;53.02;101758.84;5097398;28;19919;-80
2022/04/18 13:01:24;;;;;;;;;;;;;;;19.44;52.52;101764.97;5098041;28;19915;-78
2022/04/18 13:03:51;;;;;;;;;;;;;;;19.43;55.01;101760.47;5098124;28;19916;-79